Time,TemperatureF,DewpointF,PressureIn,WindDirection,WindDirectionDegrees,WindSpeedMPH,WindSpeedGustMPH,Humidity,HourlyPrecipIn,Conditions,Clouds,dailyrainin,SoftwareType,DateUTC
2013-06-10 00:02:00,53.0,50.0,-100.00,ESE,109,5.0,16.0,90,0.01,,,0.23,,2013-06-10 05:02:00,
2013-06-10 00:12:00,53.0,50.0,-100.00,ESE,109,5.0,16.0,90,0.01,,,0.23,,2013-06-10 05:12:00,
2013-06-10 00:22:00,53.0,50.0,-100.00,ESE,109,5.0,16.0,90,0.01,,,0.23,,2013-06-10 05:22:00,
2013-06-10 00:32:00,53.0,50.0,-100.00,ESE,109,5.0,16.0,90,0.01,,,0.23,,2013-06-10 05:32:00,
2013-06-10 00:52:00,52.0,50.0,-100.00,SE,124,3.0,12.0,93,0.00,,,0.23,,2013-06-10 05:52:00,
2013-06-10 01:02:00,52.0,50.0,-100.00,SE,124,3.0,12.0,93,0.00,,,0.23,,2013-06-10 06:02:00,
2013-06-10 01:12:00,52.0,50.0,-100.00,SE,124,3.0,12.0,93,0.00,,,0.23,,2013-06-10 06:12:00,
2013-06-10 01:22:00,52.0,50.0,-100.00,SE,124,3.0,12.0,93,0.00,,,0.23,,2013-06-10 06:22:00,
2013-06-10 01:32:00,52.0,50.0,-100.00,SE,124,3.0,12.0,93,0.00,,,0.23,,2013-06-10 06:32:00,
2013-06-10 01:53:00,52.0,51.0,-100.00,ESE,113,3.0,7.0,95,0.00,,,0.23,,2013-06-10 06:53:00,
2013-06-10 02:02:00,52.0,51.0,-100.00,ESE,113,3.0,7.0,95,0.00,,,0.23,,2013-06-10 07:02:00,
2013-06-10 02:12:00,52.0,51.0,-100.00,ESE,113,3.0,7.0,95,0.00,,,0.23,,2013-06-10 07:12:00,
2013-06-10 02:22:00,52.0,51.0,-100.00,ESE,113,3.0,7.0,95,0.00,,,0.23,,2013-06-10 07:22:00,
2013-06-10 02:32:00,52.0,51.0,-100.00,ESE,113,3.0,7.0,95,0.00,,,0.23,,2013-06-10 07:32:00,
2013-06-10 03:02:00,53.0,52.0,-100.00,East,90,2.0,5.0,95,0.00,,,0.23,,2013-06-10 08:02:00,
2013-06-10 03:12:00,53.0,52.0,-100.00,East,90,2.0,5.0,95,0.00,,,0.23,,2013-06-10 08:12:00,
2013-06-10 03:22:00,53.0,52.0,-100.00,East,90,2.0,5.0,95,0.00,,,0.23,,2013-06-10 08:22:00,
2013-06-10 03:32:00,53.0,52.0,-100.00,East,90,2.0,5.0,95,0.00,,,0.23,,2013-06-10 08:32:00,
2013-06-10 03:52:00,52.0,51.0,-100.00,NNE,19,1.0,4.0,96,0.00,,,0.23,,2013-06-10 08:52:00,
2013-06-10 04:02:00,52.0,51.0,-100.00,NNE,19,1.0,4.0,96,0.00,,,0.23,,2013-06-10 09:02:00,
2013-06-10 04:12:00,52.0,51.0,-100.00,NNE,19,1.0,4.0,96,0.00,,,0.23,,2013-06-10 09:12:00,
2013-06-10 04:22:00,52.0,51.0,-100.00,NNE,19,1.0,4.0,96,0.00,,,0.23,,2013-06-10 09:22:00,
2013-06-10 04:32:00,52.0,51.0,-100.00,NNE,19,1.0,4.0,96,0.00,,,0.23,,2013-06-10 09:32:00,
2013-06-10 04:53:00,53.0,52.0,-100.00,SSE,147,0.0,4.0,96,0.00,,,0.23,,2013-06-10 09:53:00,
2013-06-10 05:03:00,53.0,52.0,-100.00,SSE,147,0.0,4.0,96,0.00,,,0.23,,2013-06-10 10:03:00,
2013-06-10 05:12:00,53.0,52.0,-100.00,SSE,147,0.0,4.0,96,0.00,,,0.23,,2013-06-10 10:12:00,
2013-06-10 05:22:00,53.0,52.0,-100.00,SSE,147,0.0,4.0,96,0.00,,,0.23,,2013-06-10 10:22:00,
2013-06-10 05:33:00,53.0,52.0,-100.00,SSE,147,0.0,4.0,96,0.00,,,0.23,,2013-06-10 10:33:00,
2013-06-10 05:52:00,53.0,52.0,-100.00,NE,44,0.0,3.0,96,0.00,,,0.23,,2013-06-10 10:52:00,
2013-06-10 06:03:00,53.0,52.0,-100.00,NE,44,0.0,3.0,96,0.00,,,0.23,,2013-06-10 11:03:00,
2013-06-10 06:12:00,53.0,52.0,-100.00,NE,44,0.0,3.0,96,0.00,,,0.23,,2013-06-10 11:12:00,
2013-06-10 06:22:00,53.0,52.0,-100.00,NE,44,0.0,3.0,96,0.00,,,0.23,,2013-06-10 11:22:00,
2013-06-10 06:32:00,53.0,52.0,-100.00,NE,44,0.0,3.0,96,0.00,,,0.23,,2013-06-10 11:32:00,
2013-06-10 08:52:00,57.0,56.0,-100.00,SSE,153,2.0,4.0,97,-99.99,,,0.23,,2013-06-10 13:52:00,
2013-06-10 09:02:00,57.0,56.0,-100.00,SSE,153,2.0,4.0,97,-99.99,,,0.23,,2013-06-10 14:02:00,
2013-06-10 09:12:00,57.0,56.0,-100.00,SSE,153,2.0,4.0,97,-99.99,,,0.23,,2013-06-10 14:12:00,
2013-06-10 09:22:00,57.0,56.0,-100.00,SSE,153,2.0,4.0,97,-99.99,,,0.23,,2013-06-10 14:22:00,
2013-06-10 09:32:00,57.0,56.0,-100.00,SSE,153,2.0,4.0,97,-99.99,,,0.23,,2013-06-10 14:32:00,
2013-06-10 09:52:00,59.0,56.0,-100.00,South,178,2.0,5.0,90,0.00,,,0.23,,2013-06-10 14:52:00,
2013-06-10 10:02:00,59.0,56.0,-100.00,South,178,2.0,5.0,90,0.00,,,0.23,,2013-06-10 15:02:00,
2013-06-10 10:12:00,59.0,56.0,-100.00,South,178,2.0,5.0,90,0.00,,,0.23,,2013-06-10 15:12:00,
2013-06-10 10:22:00,59.0,56.0,-100.00,South,178,2.0,5.0,90,0.00,,,0.23,,2013-06-10 15:22:00,
2013-06-10 10:33:00,59.0,56.0,-100.00,South,178,2.0,5.0,90,0.00,,,0.23,,2013-06-10 15:33:00,
2013-06-10 10:53:00,62.0,57.0,-100.00,SSW,209,3.0,7.0,85,0.00,,,0.23,,2013-06-10 15:53:00,
2013-06-10 11:03:00,62.0,57.0,-100.00,SSW,209,3.0,7.0,85,0.00,,,0.23,,2013-06-10 16:03:00,
2013-06-10 11:13:00,62.0,57.0,-100.00,SSW,209,3.0,7.0,85,0.00,,,0.23,,2013-06-10 16:13:00,
2013-06-10 11:23:00,62.0,57.0,-100.00,SSW,209,3.0,7.0,85,0.00,,,0.23,,2013-06-10 16:23:00,
2013-06-10 11:33:00,62.0,57.0,-100.00,SSW,209,3.0,7.0,85,0.00,,,0.23,,2013-06-10 16:33:00,
2013-06-10 11:53:00,62.0,58.0,-100.00,NNW,329,2.0,5.0,87,0.00,,,0.23,,2013-06-10 16:53:00,
2013-06-10 12:03:00,62.0,58.0,-100.00,NNW,329,2.0,5.0,87,0.00,,,0.23,,2013-06-10 17:03:00,
2013-06-10 12:14:00,62.0,58.0,-100.00,NNW,329,2.0,5.0,87,0.00,,,0.23,,2013-06-10 17:14:00,
2013-06-10 12:27:00,62.0,58.0,-100.00,NNW,329,2.0,5.0,87,0.00,,,0.23,,2013-06-10 17:27:00,
2013-06-10 12:38:00,62.0,58.0,-100.00,NNW,329,2.0,5.0,87,0.00,,,0.23,,2013-06-10 17:38:00,
2013-06-10 13:07:00,62.0,58.0,-100.00,NNE,27,2.0,6.0,86,0.00,,,0.19,,2013-06-10 18:07:00,
2013-06-10 13:14:00,62.0,58.0,-100.00,NNE,27,2.0,6.0,86,0.00,,,0.19,,2013-06-10 18:14:00,
2013-06-10 13:25:00,62.0,58.0,-100.00,NNE,27,2.0,6.0,86,0.00,,,0.19,,2013-06-10 18:25:00,
2013-06-10 13:35:00,62.0,58.0,-100.00,NNE,27,2.0,6.0,86,0.00,,,0.19,,2013-06-10 18:35:00,
2013-06-10 13:55:00,64.0,58.0,-100.00,NNW,341,2.0,7.0,81,0.00,,,0.12,,2013-06-10 18:55:00,
2013-06-10 14:03:00,64.0,58.0,-100.00,NNW,341,2.0,7.0,81,0.00,,,0.12,,2013-06-10 19:03:00,
2013-06-10 14:13:00,64.0,58.0,-100.00,NNW,341,2.0,7.0,81,0.00,,,0.12,,2013-06-10 19:13:00,
2013-06-10 14:22:00,64.0,58.0,-100.00,NNW,341,2.0,7.0,81,0.00,,,0.12,,2013-06-10 19:22:00,
2013-06-10 14:33:00,64.0,58.0,-100.00,NNW,341,2.0,7.0,81,0.00,,,0.12,,2013-06-10 19:33:00,
2013-06-10 14:53:00,65.0,59.0,-100.00,East,91,2.0,6.0,80,0.00,,,0.08,,2013-06-10 19:53:00,
2013-06-10 15:03:00,65.0,59.0,-100.00,East,91,2.0,6.0,80,0.00,,,0.08,,2013-06-10 20:03:00,
2013-06-10 15:12:00,65.0,59.0,-100.00,East,91,2.0,6.0,80,0.00,,,0.08,,2013-06-10 20:12:00,
2013-06-10 15:22:00,65.0,59.0,-100.00,East,91,2.0,6.0,80,0.00,,,0.08,,2013-06-10 20:22:00,
2013-06-10 15:32:00,65.0,59.0,-100.00,East,91,2.0,6.0,80,0.00,,,0.08,,2013-06-10 20:32:00,
2013-06-10 15:53:00,67.0,59.0,-100.00,South,174,3.0,9.0,75,0.00,,,0.06,,2013-06-10 20:53:00,
2013-06-10 16:02:00,67.0,59.0,-100.00,South,174,3.0,9.0,75,0.00,,,0.06,,2013-06-10 21:02:00,
2013-06-10 16:12:00,67.0,59.0,-100.00,South,174,3.0,9.0,75,0.00,,,0.06,,2013-06-10 21:12:00,
2013-06-10 16:22:00,67.0,59.0,-100.00,South,174,3.0,9.0,75,0.00,,,0.06,,2013-06-10 21:22:00,
2013-06-10 16:33:00,67.0,59.0,-100.00,South,174,3.0,9.0,75,0.00,,,0.06,,2013-06-10 21:33:00,
2013-06-10 17:03:00,70.0,60.0,-100.00,NW,312,2.0,6.0,70,0.00,,,0.05,,2013-06-10 22:03:00,
2013-06-10 17:13:00,70.0,60.0,-100.00,NW,312,2.0,6.0,70,0.00,,,0.05,,2013-06-10 22:13:00,
2013-06-10 17:22:00,70.0,60.0,-100.00,NW,312,2.0,6.0,70,0.00,,,0.05,,2013-06-10 22:22:00,
2013-06-10 17:33:00,70.0,60.0,-100.00,NW,312,2.0,6.0,70,0.00,,,0.05,,2013-06-10 22:33:00,
2013-06-10 17:52:00,68.0,57.0,-100.00,WNW,294,2.0,8.0,69,0.00,,,0.04,,2013-06-10 22:52:00,
2013-06-10 18:02:00,68.0,57.0,-100.00,WNW,294,2.0,8.0,69,0.00,,,0.04,,2013-06-10 23:02:00,
2013-06-10 18:12:00,68.0,57.0,-100.00,WNW,294,2.0,8.0,69,0.00,,,0.04,,2013-06-10 23:12:00,
2013-06-10 18:22:00,68.0,57.0,-100.00,WNW,294,2.0,8.0,69,0.00,,,0.04,,2013-06-10 23:22:00,
2013-06-10 18:32:00,68.0,57.0,-100.00,WNW,294,2.0,8.0,69,0.00,,,0.04,,2013-06-10 23:32:00,
2013-06-10 19:02:00,67.0,57.0,-100.00,NW,311,2.0,8.0,70,0.00,,,0.02,,2013-06-11 00:02:00,
2013-06-10 19:12:00,67.0,57.0,-100.00,NW,311,2.0,8.0,70,0.00,,,0.02,,2013-06-11 00:12:00,
2013-06-10 19:22:00,67.0,57.0,-100.00,NW,311,2.0,8.0,70,0.00,,,0.02,,2013-06-11 00:22:00,
2013-06-10 19:32:00,67.0,57.0,-100.00,NW,311,2.0,8.0,70,0.00,,,0.02,,2013-06-11 00:32:00,
2013-06-10 20:02:00,65.0,57.0,-100.00,NNW,343,2.0,7.0,76,0.00,,,0.02,,2013-06-11 01:02:00,
2013-06-10 20:12:00,65.0,57.0,-100.00,NNW,343,2.0,7.0,76,0.00,,,0.02,,2013-06-11 01:12:00,
2013-06-10 20:22:00,65.0,57.0,-100.00,NNW,343,2.0,7.0,76,0.00,,,0.02,,2013-06-11 01:22:00,
2013-06-10 20:32:00,65.0,57.0,-100.00,NNW,343,2.0,7.0,76,0.00,,,0.02,,2013-06-11 01:32:00,
2013-06-10 20:53:00,61.0,56.0,-100.00,SSW,212,1.0,4.0,85,0.00,,,0.01,,2013-06-11 01:53:00,
2013-06-10 21:02:00,61.0,56.0,-100.00,SSW,212,1.0,4.0,85,0.00,,,0.01,,2013-06-11 02:02:00,
2013-06-10 21:12:00,61.0,56.0,-100.00,SSW,212,1.0,4.0,85,0.00,,,0.01,,2013-06-11 02:12:00,
2013-06-10 21:22:00,61.0,56.0,-100.00,SSW,212,1.0,4.0,85,0.00,,,0.01,,2013-06-11 02:22:00,
2013-06-10 21:32:00,61.0,56.0,-100.00,SSW,212,1.0,4.0,85,0.00,,,0.01,,2013-06-11 02:32:00,
2013-06-10 21:52:00,58.0,55.0,-100.00,SE,144,0.0,0.0,91,0.00,,,0.01,,2013-06-11 02:52:00,
2013-06-10 22:02:00,58.0,55.0,-100.00,SE,144,0.0,0.0,91,0.00,,,0.01,,2013-06-11 03:02:00,
2013-06-10 22:13:00,58.0,55.0,-100.00,SE,144,0.0,0.0,91,0.00,,,0.01,,2013-06-11 03:13:00,
2013-06-10 22:22:00,58.0,55.0,-100.00,SE,144,0.0,0.0,91,0.00,,,0.01,,2013-06-11 03:22:00,
2013-06-10 22:32:00,58.0,55.0,-100.00,SE,144,0.0,0.0,91,0.00,,,0.01,,2013-06-11 03:32:00,
2013-06-10 22:53:00,57.0,56.0,-100.00,SSE,155,0.0,2.0,96,0.00,,,0.01,,2013-06-11 03:53:00,
2013-06-10 23:03:00,57.0,56.0,-100.00,SSE,155,0.0,2.0,96,0.00,,,0.01,,2013-06-11 04:03:00,
2013-06-10 23:12:00,57.0,56.0,-100.00,SSE,155,0.0,2.0,96,0.00,,,0.01,,2013-06-11 04:12:00,
2013-06-10 23:23:00,57.0,56.0,-100.00,SSE,155,0.0,2.0,96,0.00,,,0.01,,2013-06-11 04:23:00,
2013-06-10 23:33:00,57.0,56.0,-100.00,SSE,155,0.0,2.0,96,0.00,,,0.01,,2013-06-11 04:33:00,
2013-06-10 23:53:00,56.0,55.0,-100.00,SSE,153,1.0,2.0,98,0.00,,,0.00,,2013-06-11 04:53:00,